Latest Weather Observations for Barrow Island

IDW60801

Issued at 3:43 pm WST Thursday 18 August 2022 (issued every 10 minutes, with the page automatically refreshed every 10 minutes)

About weather observations | Map of weather stations | Latest weather observations for WA | Other Formats
Station Details ID: 005094 Name: BARROW ISLAND AIRPORT Lat: -20.87 Lon: 115.41 Height: 6.4 m
Data from the previous 72 hours. | See also: Recent months at Barrow Island
Date/Time
WST
Temp
°C
App
Temp
°C
Dew
Point
°C
Rel
Hum
%
Delta-T
°C
Wind Press
QNH
hPa
Press
MSL
hPa
Rain since
9am
mm
Dir  Spd
km/h
Gust
km/h
Spd
kts
Gust
kts
18/03:30pm 24.2 23.4 16.2 61 4.9 S 15 19 8 10 1016.1 1016.1 0.0
18/03:00pm 24.0 23.1 15.8 60 5.0 S 15 19 8 10 1016.3 1016.3 0.0
18/02:30pm 24.1 22.7 15.6 59 5.1 S 17 20 9 11 1016.3 1016.3 0.0
18/02:00pm 24.1 22.4 14.8 56 5.5 SSE 17 22 9 12 1016.6 1016.6 0.0
18/01:30pm 24.4 22.0 14.5 54 5.9 S 20 24 11 13 1016.8 1016.8 0.0
18/01:00pm 24.0 20.5 13.5 51 6.1 SSE 24 28 13 15 1017.2 1017.2 0.0
18/12:30pm 23.8 19.9 13.4 52 6.0 S 26 30 14 16 1017.5 1017.5 0.0
18/12:00pm 23.0 18.5 12.6 52 5.9 SSE 28 33 15 18 1017.9 1017.9 0.0
18/11:30am 22.1 16.8 12.6 55 5.4 SSE 32 39 17 21 1018.4 1018.4 0.0
18/11:00am 21.7 16.3 12.8 57 5.1 SSE 33 39 18 21 1018.9 1018.9 0.0
18/10:30am 21.3 15.8 13.7 62 4.4 S 35 41 19 22 1019.2 1019.2 0.0
18/10:00am 20.6 14.7 13.6 64 4.0 S 37 43 20 23 1019.3 1019.3 0.0
18/09:30am 20.0 13.5 13.9 68 3.5 S 41 48 22 26 1019.3 1019.3 0.0
18/09:00am 19.6 12.3 13.5 68 3.5 S 44 52 24 28 1019.3 1019.3 0.0
18/08:30am 19.2 11.5 13.2 68 3.4 S 46 56 25 30 1019.2 1019.2 0.0
18/08:00am 19.2 11.3 13.8 71 3.1 S 48 56 26 30 1018.9 1018.9 0.0
18/07:30am 19.0 11.3 13.2 69 3.3 S 46 57 25 31 1018.6 1018.6 0.0
18/07:00am 18.9 10.5 13.5 71 3.1 S 50 57 27 31 1018.4 1018.4 0.0
18/06:30am 18.9 10.8 13.3 70 3.2 S 48 56 26 30 1018.2 1018.2 0.0
18/06:00am 19.2 11.5 13.4 69 3.3 S 46 52 25 28 1018.0 1018.0 0.0
18/05:30am 19.4 12.0 13.1 67 3.6 S 44 52 24 28 1018.0 1018.0 0.0
18/05:00am 19.4 11.3 13.1 67 3.6 S 48 56 26 30 1017.8 1017.8 0.0
18/04:30am 19.6 12.0 13.5 68 3.5 S 46 56 25 30 1017.7 1017.7 0.0
18/04:00am 19.8 12.1 13.3 66 3.7 S 46 56 25 30 1017.4 1017.4 0.0
18/03:30am 20.0 12.4 13.5 66 3.7 S 46 54 25 29 1017.3 1017.3 0.0
18/03:00am 20.1 12.0 13.3 65 3.9 S 48 56 26 30 1017.4 1017.4 0.0
18/02:30am 20.3 12.7 13.7 66 3.8 S 46 54 25 29 1017.6 1017.6 0.0
18/02:00am 20.6 12.4 14.0 66 3.8 S 50 57 27 31 1017.7 1017.7 0.0
18/01:30am 20.6 12.7 13.8 65 3.9 S 48 56 26 30 1017.8 1017.8 0.0
18/01:00am 20.8 13.5 14.5 67 3.7 SSW 46 56 25 30 1018.0 1018.0 0.0
18/12:30am 21.0 13.1 13.9 64 4.1 SSW 48 56 26 30 1018.0 1018.0 0.0
18/12:00am 21.0 13.2 14.2 65 3.9 SSW 48 56 26 30 1018.3 1018.3 0.0
 
Date/Time
WST
Temp
°C
App
Temp
°C
Dew
Point
°C
Rel
Hum
%
Delta-T
°C
Wind Press
QNH
hPa
Press
MSL
hPa
Rain since
9am
mm
Dir  Spd
km/h
Gust
km/h
Spd
kts
Gust
kts
17/11:30pm 21.0 13.7 14.6 67 3.7 SSW 46 54 25 29 1018.5 1018.5 0.0
17/11:00pm 21.4 14.8 15.3 68 3.6 SSW 44 50 24 27 1018.4 1018.4 0.0
17/10:30pm 21.5 15.2 15.6 69 3.5 SSW 43 50 23 27 1018.4 1018.4 0.0
17/10:00pm 21.6 15.7 16.8 74 2.9 SSW 43 48 23 26 1018.3 1018.3 0.0
17/09:30pm 21.9 15.8 16.6 72 3.2 SSW 44 50 24 27 1018.2 1018.2 0.0
17/09:00pm 22.0 15.9 16.1 69 3.6 SW 43 50 23 27 1018.2 1018.2 0.0
17/08:30pm 22.1 15.8 15.7 67 3.8 SW 43 50 23 27 1018.0 1018.0 0.0
17/08:00pm 22.0 16.5 15.8 68 3.7 SW 39 50 21 27 1017.8 1017.8 0.0
17/07:30pm 22.3 16.9 14.9 63 4.4 SW 37 44 20 24 1017.4 1017.4 0.0
17/07:00pm 22.2 16.5 15.1 64 4.2 SW 39 44 21 24 1017.1 1017.1 0.0
17/06:30pm 22.5 17.1 14.9 62 4.5 SW 37 43 20 23 1016.7 1016.7 0.0
17/06:00pm 22.5 16.9 15.6 65 4.1 SW 39 44 21 24 1016.4 1016.4 0.0
17/05:30pm 22.9 17.6 16.2 66 4.1 SW 39 46 21 25 1016.4 1016.4 0.0
17/05:00pm 23.6 19.5 17.3 67 3.9 SW 35 41 19 22 1016.4 1016.4 0.0
17/04:30pm 24.2 21.0 17.2 65 4.3 SW 30 35 16 19 1016.4 1016.4 0.0
17/04:00pm 24.3 21.8 17.1 64 4.4 SW 26 30 14 16 1016.4 1016.4 0.0
17/03:30pm 24.3 20.7 16.3 61 4.9 SW 30 35 16 19 1016.4 1016.4 0.0
17/03:00pm 24.3 20.9 16.8 63 4.6 SSW 30 35 16 19 1016.5 1016.5 0.0
17/02:30pm 24.2 21.1 16.5 62 4.7 SSW 28 32 15 17 1016.6 1016.6 0.0
17/02:00pm 24.1 20.8 16.9 64 4.4 SSW 30 35 16 19 1016.7 1016.7 0.0
17/01:30pm 24.0 20.1 16.5 63 4.6 SSW 32 37 17 20 1016.9 1016.9 0.0
17/01:00pm 24.1 20.5 17.1 65 4.3 SSW 32 37 17 20 1017.2 1017.2 0.0
17/12:30pm 23.7 20.3 16.7 65 4.3 SSW 30 35 16 19 1017.5 1017.5 0.0
17/12:00pm 23.6 20.3 17.1 67 4.0 SSW 30 35 16 19 1017.7 1017.7 0.0
17/11:30am 23.6 20.0 17.1 67 4.0 SSW 32 35 17 19 1018.2 1018.2 0.0
17/11:00am 23.4 20.4 16.7 66 4.1 S 28 33 15 18 1018.8 1018.8 0.0
17/10:30am 22.8 19.4 16.8 69 3.7 S 30 33 16 18 1018.9 1018.9 0.0
17/10:00am 23.2 20.4 17.2 69 3.7 S 28 33 15 18 1018.9 1018.9 0.0
17/09:30am 23.0 20.1 17.0 69 3.7 S 28 33 15 18 1018.8 1018.8 0.0
17/09:00am 22.6 20.4 17.9 75 2.9 S 26 28 14 15 1018.6 1018.6 0.0
17/08:30am 21.8 19.3 18.0 79 2.4 SSW 28 32 15 17 1018.4 1018.4 0.0
17/08:00am 21.6 18.6 17.8 79 2.3 S 30 35 16 19 1017.9 1017.9 0.0
17/07:30am 21.2 17.3 17.8 81 2.1 S 35 39 19 21 1017.6 1017.6 0.0
17/07:00am 21.2 18.1 18.8 86 1.5 S 33 39 18 21 1017.2 1017.2 0.0
17/06:30am 21.4 19.0 19.1 87 1.5 SSW 30 35 16 19 1016.9 1016.9 0.0
17/06:00am 21.2 19.8 18.9 87 1.4 S 24 28 13 15 1016.4 1016.4 0.0
17/05:30am 21.3 18.5 19.0 87 1.5 SSW 32 37 17 20 1016.0 1016.0 0.0
17/05:00am 21.6 18.8 19.5 88 1.3 SSW 33 37 18 20 1015.7 1015.7 0.0
17/04:30am 21.6 20.2 19.7 89 1.2 SSW 26 30 14 16 1015.4 1015.4 0.0
17/04:00am 21.7 21.0 19.6 88 1.3 S 22 26 12 14 1015.2 1015.2 0.0
17/03:30am 21.8 20.3 19.5 87 1.5 SSW 26 30 14 16 1015.2 1015.2 0.0
17/03:00am 21.9 21.2 19.6 87 1.5 SSW 22 24 12 13 1015.1 1015.1 0.0
17/02:30am 22.3 22.3 20.2 88 1.4 SSW 20 24 11 13 1015.4 1015.4 0.0
17/02:00am 22.2 22.1 19.9 87 1.5 S 20 24 11 13 1015.4 1015.4 0.0
17/01:30am 22.8 22.2 20.5 87 1.5 SSW 24 30 13 16 1015.5 1015.5 0.0
17/01:00am 23.0 21.1 20.1 84 1.9 SSW 30 35 16 19 1015.5 1015.5 0.0
17/12:30am 23.2 22.6 20.5 85 1.8 SSW 24 28 13 15 1015.5 1015.5 0.0
17/12:00am 23.3 23.3 21.0 87 1.5 SSW 22 28 12 15 1015.5 1015.5 0.0
 
Date/Time
WST
Temp
°C
App
Temp
°C
Dew
Point
°C
Rel
Hum
%
Delta-T
°C
Wind Press
QNH
hPa
Press
MSL
hPa
Rain since
9am
mm
Dir  Spd
km/h
Gust
km/h
Spd
kts
Gust
kts
16/11:30pm 23.5 22.6 21.4 88 1.4 SSW 28 32 15 17 1015.6 1015.6 0.0
16/11:00pm 23.6 24.7 21.3 87 1.5 SW 17 20 9 11 1015.7 1015.7 0.0
16/10:30pm 23.3 22.7 21.2 88 1.4 SW 26 32 14 17 1015.7 1015.7 0.0
16/10:11pm 22.9 23.8 21.5 92 0.9 W 19 37 10 20 1015.6 1015.6 0.0
16/10:00pm 22.5 25.0 21.1 92 0.9 WNW 9 11 5 6 1015.6 1015.6 0.0
16/09:30pm 22.3 24.7 20.8 91 1.0 NW 9 11 5 6 1015.4 1015.4 0.0
16/09:00pm 23.0 26.1 21.5 91 1.0 NW 7 9 4 5 1015.3 1015.3 0.0
16/08:30pm 22.8 25.2 20.9 89 1.2 NW 9 9 5 5 1015.4 1015.4 0.0
16/08:00pm 23.2 25.7 21.1 88 1.4 NNW 9 11 5 6 1015.3 1015.3 0.0
16/07:30pm 23.6 26.3 21.3 87 1.5 NNW 9 13 5 7 1014.9 1014.9 0.0
16/07:00pm 24.2 27.0 21.5 85 1.8 NNW 9 13 5 7 1014.5 1014.5 0.0
16/06:30pm 25.0 27.2 21.9 83 2.1 WNW 13 15 7 8 1014.4 1014.4 0.0
16/06:00pm 25.1 27.1 21.6 81 2.3 WNW 13 17 7 9 1014.3 1014.3 0.0
16/05:30pm 24.5 28.5 22.0 86 1.7 ENE 4 13 2 7 1014.1 1014.1 0.0
16/05:00pm 24.4 27.5 22.1 87 1.5 NNW 9 11 5 6 1014.1 1014.1 0.0
16/04:30pm 24.9 28.1 22.4 86 1.7 E 9 11 5 6 1013.8 1013.8 0.0
16/04:00pm 24.7 27.6 22.4 87 1.5 ESE 11 15 6 8 1013.5 1013.5 0.0
16/03:30pm 24.7 27.7 22.0 85 1.8 W 9 15 5 8 1013.5 1013.5 0.0
16/03:00pm 24.8 28.4 22.3 86 1.7 SSE 7 15 4 8 1013.4 1013.4 0.0
16/02:30pm 24.0 26.5 21.7 87 1.5 E 11 17 6 9 1013.5 1013.5 0.0
16/02:00pm 25.1 27.6 22.4 85 1.8 E 13 15 7 8 1013.4 1013.4 0.0
16/01:30pm 24.7 27.1 22.2 86 1.7 ESE 13 15 7 8 1013.7 1013.7 0.0
16/01:00pm 24.8 27.1 22.1 85 1.8 E 13 19 7 10 1013.8 1013.8 0.0
16/12:30pm 24.2 26.7 21.7 86 1.7 E 11 15 6 8 1014.0 1014.0 0.0
16/12:00pm 24.3 26.5 21.8 86 1.7 E 13 17 7 9 1014.2 1014.2 0.0
16/11:30am 24.3 26.1 21.8 86 1.7 ENE 15 19 8 10 1014.5 1014.5 0.0
16/11:00am 24.2 26.4 21.9 87 1.5 ESE 13 17 7 9 1014.7 1014.7 0.0
16/10:30am 24.0 26.5 21.7 87 1.5 ESE 11 15 6 8 1014.9 1014.9 0.0
16/10:00am 27.9 28.9 19.4 60 5.5 WNW 13 22 7 12 1015.0 1015.0 0.0
16/09:30am 26.3 27.4 20.4 70 3.9 WNW 15 22 8 12 1015.0 1015.0 0.0
16/09:00am 24.7 28.3 23.7 94 0.7 NW 11 20 6 11 1014.9 1014.9 0.4
16/08:30am 23.5 27.7 23.2 98 0.2 N 6 9 3 5 1014.6 1014.6 0.4
16/08:00am 21.5 24.1 21.2 98 0.2 NNE 9 9 5 5 1014.5 1014.5 0.4
16/07:30am 20.5 23.0 20.2 98 0.2 N 7 11 4 6 1014.4 1014.4 0.4
16/07:00am 20.1 22.5 19.6 97 0.3 NW 6 6 3 3 1014.0 1014.0 0.2
16/06:30am 19.9 22.0 19.4 97 0.3 NNW 7 9 4 5 1014.0 1014.0 0.2
16/06:00am 20.1 22.3 19.6 97 0.3 NNE 7 9 4 5 1013.7 1013.7 0.2
16/05:30am 20.2 22.1 19.7 97 0.3 NNE 9 9 5 5 1013.5 1013.5 0.2
16/05:00am 20.3 22.6 19.8 97 0.3 N 7 9 4 5 1013.3 1013.3 0.2
16/04:30am 20.3 22.2 19.8 97 0.3 NNE 9 9 5 5 1013.2 1013.2 0.2
16/04:00am 21.9 24.2 21.4 97 0.3 NE 11 13 6 7 1013.2 1013.2 0.0
16/03:30am 21.5 23.5 20.8 96 0.5 NNE 11 11 6 6 1013.2 1013.2 0.0
16/03:00am 21.4 24.1 20.7 96 0.5 NNE 7 9 4 5 1013.5 1013.5 0.0
16/02:30am 20.9 23.0 20.2 96 0.4 NNE 9 11 5 6 1013.3 1013.3 0.0
16/02:00am 21.9 24.5 21.2 96 0.5 NE 9 9 5 5 1013.6 1013.6 0.0
16/01:30am 22.0 25.0 21.2 95 0.5 NNE 7 9 4 5 1013.6 1013.6 0.0
16/01:00am 22.0 25.2 21.2 95 0.5 NW 6 7 3 4 1013.8 1013.8 0.0
16/12:30am 21.7 24.0 20.7 94 0.6 NNW 9 11 5 6 1014.0 1014.0 0.0
16/12:00am 21.5 24.3 20.5 94 0.6 N 6 6 3 3 1014.2 1014.2 0.0
 
Date/Time
WST
Temp
°C
App
Temp
°C
Dew
Point
°C
Rel
Hum
%
Delta-T
°C
Wind Press
QNH
hPa
Press
MSL
hPa
Rain since
9am
mm
Dir  Spd
km/h
Gust
km/h
Spd
kts
Gust
kts
15/11:30pm 21.9 24.9 20.9 94 0.7 NNE 6 7 3 4 1014.3 1014.3 0.0
15/11:00pm 22.2 24.8 21.2 94 0.7 NNE 9 15 5 8 1014.2 1014.2 0.0
15/10:30pm 22.3 25.2 21.1 93 0.8 NE 7 9 4 5 1014.3 1014.3 0.0
15/10:00pm 22.2 25.1 21.0 93 0.8 NE 7 9 4 5 1014.2 1014.2 0.0
15/09:30pm 21.9 23.8 20.5 92 0.9 NNW 11 15 6 8 1014.2 1014.2 0.0
15/09:00pm 22.1 24.4 20.6 91 1.0 N 9 13 5 7 1014.2 1014.2 0.0
15/08:30pm 22.2 24.4 20.5 90 1.1 NNE 9 11 5 6 1014.2 1014.2 0.0
15/08:00pm 22.1 24.1 20.0 88 1.3 NNE 9 11 5 6 1014.0 1014.0 0.0
15/07:30pm 22.6 23.9 20.1 86 1.6 N 13 15 7 8 1013.7 1013.7 0.0
15/07:00pm 23.0 24.2 19.8 82 2.1 NNE 13 17 7 9 1013.2 1013.2 0.0
15/06:30pm 23.8 24.3 19.3 76 2.9 NNE 15 17 8 9 1012.8 1012.8 0.0
15/06:00pm 24.9 24.5 18.1 66 4.3 NNE 17 19 9 10 1012.7 1012.7 0.0
15/05:30pm 26.5 24.5 16.4 53 6.2 NNE 22 30 12 16 1012.5 1012.5 0.0
15/05:00pm 27.1 23.6 15.5 49 7.1 NNE 28 35 15 19 1012.2 1012.2 0.0
15/04:30pm 27.2 26.0 19.3 62 5.1 NE 24 30 13 16 1012.4 1012.4 0.0
15/04:00pm 25.8 23.7 19.0 66 4.4 NE 28 35 15 19 1012.3 1012.3 0.0

Other formats

Comma delimited format used in spreadsheet applications
http://www.bom.gov.au/fwo/IDW60801/IDW60801.95304.axf

JavaScript Object Notation format (JSON) in row-major order
http://www.bom.gov.au/fwo/IDW60801/IDW60801.95304.json

Data quality

Most of these data are generated automatically and are frequently updated. Quality checks on data are not normally performed. It is possible for incorrect values to appear. Refer to information at About Latest Weather Observations and please check the disclaimer before using these data.